Time;durP1;ratioP1;P1;durP2;ratioP2;P2;SDS_P1;SDS_P2;PMS_P1;PMS_P2;Temp;Humidity;BMP_temperature;BMP_pressure;BME280_temperature;BME280_humidity;BME280_pressure;Samples;Min_cycle;Max_cycle;Signal;HPM_P1;HPM_P2
2023/10/17 00:01:25;;;;;;;6.32;2.42;;;;;;;4.17;74.14;97063.50;6296633;28;20044;-66
2023/10/17 00:04:32;;;;;;;4.20;2.40;;;;;;;4.10;73.98;97062.00;6279898;28;20040;-66
2023/10/17 00:07:43;;;;;;;4.13;2.15;;;;;;;4.07;74.30;97060.38;6263699;28;20044;-67
2023/10/17 00:10:48;;;;;;;8.10;2.60;;;;;;;4.06;74.47;97050.88;6297175;28;20044;-67
2023/10/17 00:14:07;;;;;;;2.97;2.38;;;;;;;3.98;74.72;97061.53;6296499;28;20067;-66
2023/10/17 00:17:15;;;;;;;3.45;2.30;;;;;;;3.96;74.88;97057.28;6297008;28;20526;-67
2023/10/17 00:20:17;;;;;;;2.67;2.20;;;;;;;4.03;74.91;97059.63;6296140;28;20114;-65
2023/10/17 00:23:27;;;;;;;3.90;2.15;;;;;;;4.03;74.78;97054.44;6296821;28;20047;-66
2023/10/17 00:26:32;;;;;;;3.40;2.63;;;;;;;4.21;74.63;97059.88;6295671;28;20090;-68
2023/10/17 00:29:34;;;;;;;4.68;2.45;;;;;;;4.17;74.92;97055.69;6296133;28;20143;-66
2023/10/17 00:32:41;;;;;;;;;;;;;;;4.33;74.27;97055.97;6297001;28;20036;-66
2023/10/17 00:35:48;;;;;;;3.83;2.22;;;;;;;4.21;74.80;97052.06;6295780;28;19923;-67
2023/10/17 00:39:08;;;;;;;2.92;2.22;;;;;;;4.17;74.99;97055.69;6296497;28;20052;-67
2023/10/17 00:42:34;;;;;;;4.93;2.70;;;;;;;4.24;75.11;97049.34;6296048;28;20044;-66
2023/10/17 00:45:35;;;;;;;6.70;2.75;;;;;;;4.15;75.44;97047.91;6295855;28;20084;-67
2023/10/17 00:48:38;;;;;;;12.02;6.40;;;;;;;4.16;75.77;97049.63;6295805;28;20435;-67
2023/10/17 00:51:40;;;;;;;5.00;2.60;;;;;;;4.13;75.54;97054.94;6296201;28;20135;-66
2023/10/17 00:54:47;;;;;;;5.72;2.67;;;;;;;4.20;75.66;97047.75;6295916;28;20213;-66
2023/10/17 00:57:48;;;;;;;3.15;2.40;;;;;;;4.14;75.61;97048.00;6295156;28;20055;-67
2023/10/17 01:01:33;;;;;;;4.47;2.60;;;;;;;4.13;76.08;97048.88;6294929;28;20059;-67
2023/10/17 01:04:19;;;;;;;3.85;2.78;;;;;;;4.04;76.12;97050.91;6267390;28;20472;-67
2023/10/17 01:07:29;;;;;;;2.67;2.00;;;;;;;4.26;75.62;97050.13;6295855;28;20048;-67
2023/10/17 01:10:31;;;;;;;5.85;2.80;;;;;;;4.15;76.01;97045.31;6295310;28;20048;-67
2023/10/17 01:13:37;;;;;;;7.10;4.18;;;;;;;4.03;76.33;97044.00;6261023;28;20056;-67
2023/10/17 01:16:44;;;;;;;6.65;3.45;;;;;;;3.87;76.70;97039.41;6295253;28;20051;-66
2023/10/17 01:19:49;;;;;;;6.22;3.50;;;;;;;4.00;76.70;97038.91;6295831;28;20056;-67
2023/10/17 01:22:56;;;;;;;6.47;3.78;;;;;;;3.78;77.03;97031.00;6294738;28;20051;-67
2023/10/17 01:26:08;;;;;;;6.75;4.22;;;;;;;3.79;77.31;97029.25;6295407;28;20036;-66
2023/10/17 01:29:11;;;;;;;6.68;3.60;;;;;;;3.67;77.68;97024.50;6295162;28;20083;-66
2023/10/17 01:32:14;;;;;;;5.53;3.65;;;;;;;3.66;77.69;97022.81;6277063;28;20044;-68
2023/10/17 01:35:19;;;;;;;9.57;4.22;;;;;;;3.69;77.54;97022.69;6294838;28;20051;-67
2023/10/17 01:38:26;;;;;;;9.38;5.40;;;;;;;3.63;77.75;97018.56;6295398;28;20037;-67
2023/10/17 01:41:35;;;;;;;12.68;6.60;;;;;;;3.50;78.08;97002.50;6295046;28;20086;-67
2023/10/17 01:44:42;;;;;;;11.68;5.80;;;;;;;3.48;78.11;97013.88;6295017;28;20044;-67
2023/10/17 01:47:47;;;;;;;10.20;5.53;;;;;;;3.62;77.87;97016.00;6294282;28;20051;-67
2023/10/17 01:50:48;;;;;;;14.52;6.47;;;;;;;3.57;78.01;97009.22;6293879;28;20463;-67
2023/10/17 01:53:51;;;;;;;17.20;7.57;;;;;;;3.65;78.41;97013.28;6257763;28;20045;-66
2023/10/17 01:56:58;;;;;;;13.63;6.67;;;;;;;3.69;78.13;97001.88;6251504;28;20079;-66
2023/10/17 02:00:18;;;;;;;12.80;5.78;;;;;;;3.56;78.50;97001.44;6269047;28;20059;-67
2023/10/17 02:03:25;;;;;;;16.13;7.55;;;;;;;3.62;78.47;97000.38;6268954;28;20052;-67
2023/10/17 02:06:30;;;;;;;13.27;7.68;;;;;;;3.53;78.66;96997.19;6252325;28;20535;-67
2023/10/17 02:12:47;;;;;;;17.08;8.40;;;;;;;3.64;78.92;96990.78;6268381;28;20051;-66
2023/10/17 02:15:50;;;;;;;10.38;6.15;;;;;;;3.49;79.20;96999.97;6268937;28;20049;-67
2023/10/17 02:18:58;;;;;;;16.23;8.77;;;;;;;3.45;79.33;96996.59;6269640;28;20045;-67
2023/10/17 02:22:11;;;;;;;17.98;9.50;;;;;;;3.38;79.30;96987.34;6269410;28;20508;-67
2023/10/17 02:25:15;;;;;;;19.67;9.43;;;;;;;3.37;79.75;96985.66;6268615;28;20045;-67
2023/10/17 02:28:20;;;;;;;16.73;8.88;;;;;;;3.35;79.90;96979.63;6268403;28;20048;-66
2023/10/17 02:31:32;;;;;;;21.10;10.70;;;;;;;3.32;80.21;96978.00;6251681;28;20063;-66
2023/10/17 02:34:36;;;;;;;22.77;10.98;;;;;;;3.34;80.17;96983.13;6268022;28;20049;-67
2023/10/17 02:37:43;;;;;;;20.80;10.25;;;;;;;3.53;79.57;96978.13;6269222;28;20049;-67
2023/10/17 02:40:51;;;;;;;16.80;9.02;;;;;;;3.57;79.41;96978.00;6268499;28;20057;-67
2023/10/17 02:43:55;;;;;;;21.95;10.20;;;;;;;3.62;79.31;96969.16;6268192;28;20505;-68
2023/10/17 02:47:05;;;;;;;17.50;10.45;;;;;;;3.53;79.53;96975.53;6268498;28;20051;-67
2023/10/17 02:50:19;;;;;;;20.23;9.57;;;;;;;3.59;79.41;96981.41;6268249;28;20094;-67
2023/10/17 02:53:24;;;;;;;29.25;14.50;;;;;;;3.70;79.40;96988.78;6283094;28;20415;-67
2023/10/17 02:56:26;;;;;;;21.15;10.60;;;;;;;3.59;79.80;96983.13;6292582;28;20049;-66
2023/10/17 02:59:35;;;;;;;22.45;11.68;;;;;;;3.67;79.54;96980.25;6260492;28;20519;-66
2023/10/17 03:02:42;;;;;;;22.35;10.80;;;;;;;3.68;79.84;96975.00;6293622;28;20048;-67
2023/10/17 03:05:50;;;;;;;18.40;10.70;;;;;;;3.62;79.88;96974.34;6275291;28;20055;-67
2023/10/17 03:09:06;;;;;;;18.30;9.48;;;;;;;3.57;80.15;96983.19;6292610;28;20462;-66
2023/10/17 03:12:19;;;;;;;15.60;10.13;;;;;;;3.65;80.06;96974.25;6278026;28;20041;-67
2023/10/17 03:15:29;;;;;;;22.77;9.70;;;;;;;3.64;80.11;96989.03;6293671;28;20045;-67
2023/10/17 03:18:31;;;;;;;19.58;8.63;;;;;;;3.75;79.93;96986.03;6292470;28;20053;-67
2023/10/17 03:21:34;;;;;;;14.23;7.75;;;;;;;3.70;79.87;96977.53;6293255;28;20037;-66
2023/10/17 03:24:44;;;;;;;16.27;8.65;;;;;;;3.92;79.74;96978.47;6293767;28;20041;-67
2023/10/17 03:27:55;;;;;;;13.90;7.82;;;;;;;3.91;78.97;96981.97;6297998;28;20036;-66
2023/10/17 03:30:59;;;;;;;18.50;7.97;;;;;;;4.05;79.40;96984.94;6297576;28;20052;-67
2023/10/17 03:34:05;;;;;;;17.27;8.70;;;;;;;4.07;79.28;96976.19;6297095;28;20055;-67
2023/10/17 03:40:39;;;;;;;15.88;8.13;;;;;;;4.28;78.60;96983.22;6296975;28;20052;-67
2023/10/17 03:43:53;;;;;;;15.48;7.82;;;;;;;4.19;78.69;96980.94;6278858;28;20068;-66
2023/10/17 03:46:59;;;;;;;13.40;6.70;;;;;;;4.24;78.54;96979.00;6297217;28;20044;-68
2023/10/17 03:50:07;;;;;;;13.70;8.25;;;;;;;4.35;78.65;96983.81;6279259;28;20535;-67
2023/10/17 03:53:15;;;;;;;13.02;6.63;;;;;;;4.42;78.45;96980.94;6296417;28;20500;-66
2023/10/17 03:56:44;;;;;;;16.27;8.27;;;;;;;4.42;78.20;96982.69;6279449;28;20255;-68
2023/10/17 03:59:56;;;;;;;17.10;7.50;;;;;;;4.35;78.85;96974.25;6279301;28;20186;-67
2023/10/17 04:07:52;;;;;;;14.32;8.73;;;;;;;4.92;77.10;96990.25;6297453;28;20143;-69
2023/10/17 04:15:50;;;;;;;12.02;5.72;;;;;;;4.92;77.15;96972.84;6252821;28;20459;-67
2023/10/17 04:19:39;;;;;;;13.27;8.38;;;;;;;4.89;77.39;96972.13;6244329;28;20476;-67
2023/10/17 04:23:21;;;;;;;13.38;8.13;;;;;;;5.10;77.21;96980.84;6251962;28;20049;-67
2023/10/17 04:27:46;;;;;;;;;;;;;;;;;;;;;
2023/10/17 04:31:10;;;;;;;15.18;7.95;;;;;;;5.33;76.99;96985.09;6251141;28;20053;-67
2023/10/17 04:34:45;;;;;;;14.65;7.90;;;;;;;5.43;76.75;96990.75;6243070;28;20052;-67
2023/10/17 04:38:16;;;;;;;13.43;6.40;;;;;;;5.52;76.86;96995.59;6268356;28;20049;-67
2023/10/17 04:41:40;;;;;;;13.35;7.57;;;;;;;5.77;75.87;96988.38;6279373;28;20040;-67
2023/10/17 04:44:52;;;;;;;15.40;7.70;;;;;;;5.92;75.82;96986.03;6296093;28;20440;-67
2023/10/17 04:48:14;;;;;;;;;;;;;;;5.82;76.02;96975.13;6296905;28;20040;-67
2023/10/17 04:51:25;;;;;;;9.15;4.72;;;;;;;5.88;76.44;96964.41;6296266;28;20020;-67
2023/10/17 05:07:50;;;;;;;7.18;3.50;;;;;;;6.62;74.50;96947.97;6295748;28;20044;-66
2023/10/17 06:18:42;;;;;;;2.28;0.60;;;;;;;25.50;26.24;96881.06;6294302;28;20044;-67
2023/10/17 06:22:49;;;;;;;2.35;0.70;;;;;;;26.39;25.34;96893.19;6293780;28;20135;-66
2023/10/17 06:28:46;;;;;;;2.80;1.10;;;;;;;27.84;23.48;96883.91;6275865;28;20448;-67
2023/10/17 06:35:23;;;;;;;2.57;0.57;;;;;;;27.66;23.50;96870.16;6293833;28;20040;-67
2023/10/17 06:38:35;;;;;;;2.67;0.70;;;;;;;27.37;23.31;96871.38;6293710;28;20044;-67
2023/10/17 06:41:38;;;;;;;1.13;0.63;;;;;;;26.42;24.31;96847.75;6275664;28;20139;-66
2023/10/17 06:44:53;;;;;;;1.20;0.90;;;;;;;26.92;23.79;96852.13;6293761;28;20052;-67
2023/10/17 06:47:59;;;;;;;0.82;0.43;;;;;;;26.73;24.16;96843.75;6293755;28;20051;-66
2023/10/17 06:54:25;;;;;;;1.05;0.60;;;;;;;27.63;22.99;96841.69;6252729;28;20087;-66
2023/10/17 06:57:36;;;;;;;1.92;0.88;;;;;;;27.54;23.32;96845.59;6251058;28;20053;-67
2023/10/17 07:00:51;;;;;;;0.55;0.38;;;;;;;27.36;23.31;96829.19;6254776;28;20044;-67
2023/10/17 07:04:01;;;;;;;0.98;0.63;;;;;;;27.81;22.92;96813.22;6273896;28;20049;-66
2023/10/17 07:07:05;;;;;;;1.58;0.80;;;;;;;29.01;21.89;96822.59;6274120;28;20877;-66
2023/10/17 07:10:16;;;;;;;1.88;0.80;;;;;;;29.18;21.21;96812.09;6273467;28;20060;-66
2023/10/17 07:13:54;;;;;;;1.92;0.65;;;;;;;29.03;21.35;96817.00;6255562;28;20512;-67
2023/10/17 07:17:17;;;;;;;2.35;0.60;;;;;;;28.34;21.81;96823.91;6239606;28;20053;-68
2023/10/17 07:21:15;;;;;;;0.88;0.70;;;;;;;28.14;21.71;96792.34;6273587;28;20534;-67
2023/10/17 07:24:06;;;;;;;2.05;0.88;;;;;;;28.95;21.33;96782.81;6273166;28;20045;-67
2023/10/17 07:27:18;;;;;;;0.90;0.43;;;;;;;29.79;20.38;96794.34;6273391;28;20064;-66
2023/10/17 07:30:48;;;;;;;1.40;0.50;;;;;;;28.79;20.95;96783.34;6272920;28;20585;-66
2023/10/17 07:34:07;;;;;;;2.15;0.65;;;;;;;27.53;22.37;96779.09;6272706;28;20590;-67
2023/10/17 07:40:33;;;;;;;1.63;0.70;;;;;;;28.49;21.33;96762.25;6255580;28;20041;-67
2023/10/17 07:43:57;;;;;;;1.38;0.60;;;;;;;27.95;21.98;96753.47;6272344;28;20052;-66
2023/10/17 07:47:09;;;;;;;1.63;0.95;;;;;;;27.58;22.36;96735.22;6272550;28;20587;-67
2023/10/17 07:50:14;;;;;;;1.58;0.70;;;;;;;27.86;22.07;96729.59;6272130;28;20057;-66
2023/10/17 07:53:20;;;;;;;1.73;0.68;;;;;;;27.97;21.52;96716.25;6284685;28;20052;-67
2023/10/17 07:56:32;;;;;;;3.30;0.90;;;;;;;27.93;21.17;96714.16;6297518;28;20052;-67
2023/10/17 07:59:34;;;;;;;4.60;0.57;;;;;;;28.27;21.00;96715.69;6278525;28;20048;-66
2023/10/17 08:02:40;;;;;;;1.33;0.50;;;;;;;28.82;20.32;96717.94;6296795;28;20427;-66
2023/10/17 08:05:45;;;;;;;1.58;0.60;;;;;;;28.64;19.90;96770.91;6296392;28;20052;-67
2023/10/17 08:08:52;;;;;;;0.98;0.35;;;;;;;27.77;20.37;96702.75;6296999;28;20518;-67
2023/10/17 08:11:59;;;;;;;1.48;0.80;;;;;;;27.47;19.44;96704.28;6296134;28;20040;-66
2023/10/17 08:15:22;;;;;;;1.10;0.43;;;;;;;27.46;19.21;96718.81;6297083;28;20566;-66
2023/10/17 08:18:28;;;;;;;1.90;0.60;;;;;;;27.29;19.47;96694.94;6297100;28;20032;-67
2023/10/17 08:21:40;;;;;;;1.00;0.50;;;;;;;28.29;19.11;96691.16;6295945;28;20052;-66
2023/10/17 08:24:51;;;;;;;1.80;1.00;;;;;;;27.59;19.56;96713.38;6297038;28;20040;-67
2023/10/17 08:27:54;;;;;;;0.82;0.52;;;;;;;27.33;19.25;96687.25;6296877;28;20044;-66
2023/10/17 08:31:01;;;;;;;;;;;;;;;27.23;19.65;96730.03;6295694;28;20067;-66
2023/10/17 08:34:12;;;;;;;1.20;0.68;;;;;;;26.78;20.21;96679.34;6279134;28;20322;-67
2023/10/17 08:37:20;;;;;;;2.58;0.63;;;;;;;27.14;19.78;96678.06;6296582;28;20083;-66
2023/10/17 08:43:41;;;;;;;1.45;0.77;;;;;;;26.88;19.83;96660.84;6296291;28;20464;-66
2023/10/17 08:46:47;;;;;;;2.30;0.60;;;;;;;27.34;18.90;96661.06;6296189;28;20044;-66
2023/10/17 08:49:54;;;;;;;2.35;0.60;;;;;;;27.22;18.69;96653.59;6277923;28;20052;-66
2023/10/17 08:53:03;;;;;;;1.27;0.57;;;;;;;26.93;18.90;96662.09;6296236;28;20331;-66
2023/10/17 08:56:07;;;;;;;0.70;0.50;;;;;;;26.72;18.89;96641.53;6295793;28;20186;-66
2023/10/17 08:59:34;;;;;;;0.85;0.43;;;;;;;26.56;19.26;96631.97;6296252;28;20417;-67
2023/10/17 09:02:55;;;;;;;2.10;0.98;;;;;;;27.15;18.76;96646.50;6277881;28;20054;-67
2023/10/17 09:09:21;;;;;;;2.13;1.02;;;;;;;26.37;19.24;96615.50;6295423;28;20519;-66
2023/10/17 09:12:25;;;;;;;1.27;0.70;;;;;;;26.47;19.02;96622.38;6295739;28;20044;-67
2023/10/17 09:15:39;;;;;;;1.25;0.43;;;;;;;26.28;19.26;96622.16;6295482;28;20036;-67
2023/10/17 09:18:48;;;;;;;;;;;;;;;27.01;18.59;96610.59;6295627;28;20045;-66
2023/10/17 09:21:54;;;;;;;1.75;0.57;;;;;;;26.33;18.87;96573.81;6294996;28;19949;-67
2023/10/17 09:25:12;;;;;;;1.20;0.68;;;;;;;26.35;18.84;96604.09;6276309;28;20547;-67
2023/10/17 09:28:22;;;;;;;3.42;1.20;;;;;;;26.05;18.62;96582.06;6276906;28;20044;-66
2023/10/17 09:31:29;;;;;;;1.40;0.30;;;;;;;26.50;18.45;96586.91;6294864;28;20056;-66
2023/10/17 09:34:32;;;;;;;1.25;0.70;;;;;;;26.10;19.01;96584.13;6294571;28;20048;-67
2023/10/17 09:37:37;;;;;;;1.30;0.60;;;;;;;25.91;18.38;96586.59;6293903;28;20214;-68
2023/10/17 09:40:49;;;;;;;2.05;0.75;;;;;;;26.16;18.18;96561.78;6295353;28;20359;-67
2023/10/17 09:43:54;;;;;;;1.25;0.50;;;;;;;25.65;18.20;96576.53;6295039;28;20511;-66
2023/10/17 09:47:01;;;;;;;1.55;0.70;;;;;;;25.07;19.03;96573.28;6294444;28;20092;-66
2023/10/17 09:50:08;;;;;;;1.13;0.60;;;;;;;25.43;18.78;96556.13;6293777;28;20059;-67
2023/10/17 09:53:20;;;;;;;1.92;0.50;;;;;;;25.53;18.91;96552.03;6294215;28;20102;-67
2023/10/17 09:56:28;;;;;;;0.82;0.50;;;;;;;25.17;19.46;96552.28;6294104;28;20049;-66
2023/10/17 09:59:40;;;;;;;2.22;0.60;;;;;;;25.54;19.09;96575.25;6293866;28;20049;-66
2023/10/17 10:02:47;;;;;;;1.48;0.55;;;;;;;25.07;19.33;96590.28;6294166;28;20055;-67
2023/10/17 10:05:54;;;;;;;1.75;0.45;;;;;;;24.72;19.46;96577.84;6294489;28;20036;-67
2023/10/17 10:09:01;;;;;;;0.70;0.40;;;;;;;24.20;20.24;96578.00;6293910;28;20059;-67
2023/10/17 10:12:11;;;;;;;1.75;0.60;;;;;;;24.10;20.47;96545.22;6294541;28;20044;-67
2023/10/17 10:15:51;;;;;;;6.65;1.10;;;;;;;23.74;21.33;96540.72;6294307;28;20044;-67
2023/10/17 10:18:58;;;;;;;1.38;0.73;;;;;;;23.67;21.70;96529.03;6294113;28;20049;-67
2023/10/17 10:22:05;;;;;;;3.60;2.05;;;;;;;23.93;20.83;96514.25;6293352;28;20044;-69
2023/10/17 10:25:10;;;;;;;0.95;0.65;;;;;;;23.87;20.65;96523.91;6293514;28;20052;-67
2023/10/17 10:28:24;;;;;;;0.90;0.63;;;;;;;24.39;20.62;96527.25;6292805;28;20053;-68
2023/10/17 10:31:38;;;;;;;2.40;0.85;;;;;;;24.28;20.56;96519.72;6276368;28;20507;-67
2023/10/17 10:34:45;;;;;;;1.60;0.95;;;;;;;23.93;21.11;96490.06;6292414;28;20527;-67
2023/10/17 10:37:55;;;;;;;2.20;0.80;;;;;;;24.22;21.21;96493.63;6293772;28;20044;-67
2023/10/17 10:41:07;;;;;;;1.33;0.57;;;;;;;24.16;21.36;96490.66;6294107;28;20047;-68
2023/10/17 10:44:12;;;;;;;1.63;0.50;;;;;;;23.50;21.68;96479.28;6275840;28;20044;-68
2023/10/17 10:47:19;;;;;;;5.10;0.47;;;;;;;23.07;22.34;96489.91;6294077;28;20048;-67
2023/10/17 10:50:24;;;;;;;0.88;0.43;;;;;;;22.86;22.61;96474.53;6293475;28;20056;-67
2023/10/17 10:53:35;;;;;;;6.88;1.15;;;;;;;23.38;21.93;96507.63;6258892;28;20052;-67
2023/10/17 10:56:50;;;;;;;1.17;0.77;;;;;;;23.16;21.90;96486.13;6250665;28;20037;-66
2023/10/17 11:00:00;;;;;;;4.55;0.80;;;;;;;22.81;22.22;96477.78;6268486;28;20041;-67
2023/10/17 11:03:06;;;;;;;3.17;0.73;;;;;;;22.53;22.64;96488.34;6268250;28;20067;-67
2023/10/17 11:06:10;;;;;;;2.90;0.60;;;;;;;22.45;22.85;96479.50;6267912;28;20539;-67
2023/10/17 11:09:24;;;;;;;1.30;0.60;;;;;;;22.34;22.12;96484.31;6268416;28;20523;-67
2023/10/17 11:12:26;;;;;;;2.25;0.90;;;;;;;21.94;21.56;96485.50;6267935;28;20059;-66
2023/10/17 11:15:32;;;;;;;2.28;0.55;;;;;;;21.69;21.95;96476.81;6268376;28;20613;-67
2023/10/17 11:18:43;;;;;;;1.67;0.68;;;;;;;21.14;22.69;96478.63;6268431;28;20045;-67
2023/10/17 11:21:55;;;;;;;1.17;0.70;;;;;;;20.83;23.16;96478.59;6267884;28;20055;-67
2023/10/17 11:24:59;;;;;;;2.20;0.73;;;;;;;20.51;23.73;96491.03;6267130;28;20052;-67
2023/10/17 11:28:09;;;;;;;0.82;0.43;;;;;;;20.37;24.07;96465.00;6268402;28;20044;-67
2023/10/17 11:31:21;;;;;;;0.57;0.30;;;;;;;20.35;24.12;96459.00;6268152;28;20140;-68
2023/10/17 11:34:31;;;;;;;2.80;0.95;;;;;;;20.25;24.49;96447.69;6267630;28;20053;-68
2023/10/17 11:37:47;;;;;;;1.65;0.88;;;;;;;20.27;24.48;96446.50;6268235;28;20048;-67
2023/10/17 11:40:59;;;;;;;2.72;0.80;;;;;;;20.05;24.51;96432.00;6267136;28;20433;-67
2023/10/17 11:44:09;;;;;;;2.47;0.70;;;;;;;19.81;24.73;96440.03;6267278;28;20516;-68
2023/10/17 11:47:22;;;;;;;3.20;0.80;;;;;;;19.57;24.86;96433.66;6270825;28;20045;-69
2023/10/17 11:50:35;;;;;;;1.35;1.00;;;;;;;19.29;25.25;96430.47;6271703;28;20419;-68
2023/10/17 11:54:00;;;;;;;1.52;0.90;;;;;;;19.13;25.93;96452.59;6288982;28;20135;-66
2023/10/17 11:57:14;;;;;;;1.45;0.75;;;;;;;18.97;26.11;96420.59;6297276;28;20479;-68
2023/10/17 12:03:28;;;;;;;3.80;0.77;;;;;;;18.57;26.60;96414.06;6296778;28;20503;-68
2023/10/17 12:06:34;;;;;;;2.15;0.60;;;;;;;18.30;27.04;96413.28;6296942;28;20040;-67
2023/10/17 12:09:36;;;;;;;3.20;0.90;;;;;;;18.12;27.16;96410.72;6295918;28;20051;-67
2023/10/17 12:12:39;;;;;;;3.38;0.75;;;;;;;17.87;27.77;96406.22;6295754;28;20055;-67
2023/10/17 12:15:46;;;;;;;2.38;0.68;;;;;;;17.67;28.34;96402.91;6297003;28;20411;-68
2023/10/17 12:18:52;;;;;;;2.92;1.40;;;;;;;17.35;28.82;96396.31;6296805;28;20137;-68
2023/10/17 12:22:00;;;;;;;2.83;1.40;;;;;;;17.09;29.11;96390.91;6295995;28;20139;-67
2023/10/17 12:25:04;;;;;;;2.53;1.08;;;;;;;16.94;29.46;96387.97;6296514;28;20190;-68
2023/10/17 12:28:11;;;;;;;3.42;1.17;;;;;;;16.84;30.01;96379.22;6296715;28;20041;-67
2023/10/17 12:31:17;;;;;;;4.05;1.30;;;;;;;16.28;30.78;96388.19;6296496;28;20040;-68
2023/10/17 12:34:22;;;;;;;3.65;1.08;;;;;;;15.70;31.75;96374.13;6296557;28;20040;-68
2023/10/17 12:37:28;;;;;;;1.30;0.98;;;;;;;15.20;32.76;96369.03;6296367;28;20075;-67
2023/10/17 12:40:38;;;;;;;1.08;0.50;;;;;;;14.91;33.26;96370.81;6296245;28;20053;-67
2023/10/17 12:43:42;;;;;;;1.40;0.77;;;;;;;14.71;34.01;96362.00;6295473;28;20056;-68
2023/10/17 12:46:50;;;;;;;0.98;0.68;;;;;;;14.29;34.58;96355.06;6296299;28;20037;-68
2023/10/17 12:49:54;;;;;;;3.30;0.60;;;;;;;14.33;34.94;96353.84;6295704;28;20059;-68
2023/10/17 12:53:01;;;;;;;3.10;0.90;;;;;;;14.11;35.52;96348.75;6295761;28;20198;-68
2023/10/17 12:56:09;;;;;;;2.03;0.90;;;;;;;14.02;35.96;96360.16;6295812;28;20040;-68
2023/10/17 12:59:13;;;;;;;2.10;0.80;;;;;;;13.82;36.33;96338.06;6295465;28;20059;-67
2023/10/17 13:02:21;;;;;;;;;;;;;;;13.62;36.81;96342.44;6278596;28;20044;-67
2023/10/17 13:05:26;;;;;;;1.42;0.82;;;;;;;13.38;37.22;96335.59;6294146;28;19927;-68
2023/10/17 13:08:31;;;;;;;2.88;0.90;;;;;;;13.28;37.34;96333.88;6295533;28;20037;-67
2023/10/17 13:11:35;;;;;;;4.35;1.10;;;;;;;13.12;37.88;96331.66;6295672;28;20440;-67
2023/10/17 13:14:37;;;;;;;1.08;0.73;;;;;;;13.03;38.05;96331.44;6294872;28;20052;-66
2023/10/17 13:17:39;;;;;;;2.67;0.80;;;;;;;12.81;38.45;96339.47;6295818;28;20044;-67
2023/10/17 13:20:53;;;;;;;2.25;1.02;;;;;;;12.70;38.84;96339.50;6295590;28;20491;-67
2023/10/17 13:24:00;;;;;;;0.60;0.60;;;;;;;12.55;38.81;96331.88;6295699;28;20037;-67
2023/10/17 13:27:10;;;;;;;1.80;0.90;;;;;;;12.49;39.00;96337.66;6295332;28;20040;-68
2023/10/17 13:30:20;;;;;;;1.67;0.90;;;;;;;12.44;39.10;96333.72;6294883;28;20458;-66
2023/10/17 13:33:27;;;;;;;2.40;1.10;;;;;;;12.53;39.00;96328.53;6295405;28;20055;-67
2023/10/17 13:36:32;;;;;;;2.53;1.15;;;;;;;12.36;39.57;96326.41;6294457;28;20519;-68
2023/10/17 13:39:36;;;;;;;2.25;0.77;;;;;;;12.34;39.43;96323.06;6295039;28;20099;-68
2023/10/17 13:42:44;;;;;;;0.80;0.70;;;;;;;12.28;39.64;96323.56;6294756;28;20056;-67
2023/10/17 13:45:45;;;;;;;1.75;0.90;;;;;;;12.19;39.78;96319.03;6294479;28;20040;-67
2023/10/17 13:48:50;;;;;;;2.95;0.77;;;;;;;12.09;40.17;96313.66;6294763;28;20048;-66
2023/10/17 13:51:53;;;;;;;2.97;0.85;;;;;;;12.05;40.33;96302.50;6293541;28;20063;-68
2023/10/17 13:54:55;;;;;;;3.57;1.00;;;;;;;11.93;40.41;96314.03;6294884;28;20410;-68
2023/10/17 13:58:01;;;;;;;1.50;1.10;;;;;;;11.78;40.93;96315.22;6294326;28;20455;-67
2023/10/17 14:04:30;;;;;;;1.35;0.80;;;;;;;11.76;41.47;96306.59;6294467;28;20135;-68
2023/10/17 14:07:32;;;;;;;1.65;1.05;;;;;;;11.80;41.33;96300.94;6293521;28;20067;-67
2023/10/17 14:10:37;;;;;;;2.75;0.85;;;;;;;11.62;41.85;96287.41;6293090;28;20147;-67
2023/10/17 14:13:42;;;;;;;3.63;0.70;;;;;;;11.74;41.75;96297.94;6276421;28;20040;-69
2023/10/17 14:16:50;;;;;;;2.55;0.60;;;;;;;11.60;42.05;96297.22;6294359;28;20036;-69
2023/10/17 14:20:05;;;;;;;0.77;0.43;;;;;;;11.51;42.27;96300.59;6294472;28;20044;-67
2023/10/17 14:23:16;;;;;;;1.05;0.70;;;;;;;11.46;42.47;96295.69;6275787;28;20040;-67
2023/10/17 14:26:20;;;;;;;0.50;0.30;;;;;;;11.57;42.39;96278.19;6293988;28;20439;-67
2023/10/17 14:29:23;;;;;;;2.63;0.80;;;;;;;11.52;42.65;96297.00;6293650;28;20056;-68
2023/10/17 14:32:28;;;;;;;2.47;0.80;;;;;;;11.57;42.46;96286.94;6293264;28;20063;-68
2023/10/17 14:35:33;;;;;;;3.97;0.80;;;;;;;11.40;42.72;96266.34;6294366;28;20036;-67
2023/10/17 14:38:37;;;;;;;1.80;0.82;;;;;;;11.36;43.15;96280.72;6292870;28;20052;-67
2023/10/17 14:41:44;;;;;;;2.03;0.75;;;;;;;11.30;43.25;96270.66;6293779;28;20043;-68
2023/10/17 14:44:49;;;;;;;0.70;0.60;;;;;;;11.12;43.68;96263.19;6294063;28;20135;-69
2023/10/17 14:47:55;;;;;;;3.45;1.17;;;;;;;11.01;44.09;96263.19;6293753;28;20055;-67
2023/10/17 14:51:01;;;;;;;3.88;1.58;;;;;;;10.88;44.33;96257.19;6293654;28;20518;-66
2023/10/17 14:54:08;;;;;;;1.10;0.80;;;;;;;10.73;44.78;96252.13;6293418;28;20654;-68
2023/10/17 14:57:13;;;;;;;5.00;1.00;;;;;;;10.63;45.24;96253.75;6293859;28;20052;-68
2023/10/17 15:00:16;;;;;;;1.98;0.70;;;;;;;10.61;45.40;96253.03;6292813;28;20060;-67
2023/10/17 15:03:18;;;;;;;1.40;0.60;;;;;;;10.34;45.93;96255.94;6292895;28;20052;-67
2023/10/17 15:06:23;;;;;;;2.50;1.00;;;;;;;10.34;46.04;96256.78;6293400;28;20040;-68
2023/10/17 15:09:26;;;;;;;3.25;0.90;;;;;;;10.29;46.50;96255.44;6293440;28;20045;-67
2023/10/17 15:12:34;;;;;;;2.42;0.68;;;;;;;10.31;46.63;96253.53;6293524;28;20055;-67
2023/10/17 15:15:37;;;;;;;1.35;0.65;;;;;;;10.18;46.76;96247.47;6293414;28;20048;-67
2023/10/17 15:18:44;;;;;;;2.30;0.95;;;;;;;10.04;46.93;96245.84;6293459;28;20036;-68
2023/10/17 15:21:56;;;;;;;2.50;0.57;;;;;;;9.67;47.87;96243.22;6279377;28;20041;-68
2023/10/17 15:24:58;;;;;;;1.67;0.70;;;;;;;9.66;47.97;96241.56;6297655;28;20057;-68
2023/10/17 15:28:02;;;;;;;2.08;1.35;;;;;;;9.54;48.06;96227.53;6298201;28;20040;-67
2023/10/17 15:31:10;;;;;;;1.77;1.00;;;;;;;9.60;48.38;96236.75;6298137;28;20110;-68
2023/10/17 15:34:15;;;;;;;3.92;1.00;;;;;;;9.43;48.73;96236.16;6298244;28;20461;-67
2023/10/17 15:37:17;;;;;;;2.15;1.00;;;;;;;9.40;48.85;96223.25;6296553;28;20045;-67
2023/10/17 15:40:24;;;;;;;1.52;0.95;;;;;;;9.34;49.07;96225.44;6297828;28;20044;-68
2023/10/17 15:43:30;;;;;;;2.58;0.95;;;;;;;9.22;49.35;96220.09;6280250;28;20496;-67
2023/10/17 15:46:35;;;;;;;2.78;1.00;;;;;;;9.18;49.22;96209.94;6297420;28;20052;-67
2023/10/17 15:49:42;;;;;;;1.38;0.77;;;;;;;9.24;49.48;96206.88;6297292;28;20052;-68
2023/10/17 15:52:50;;;;;;;1.02;0.55;;;;;;;9.04;49.81;96196.94;6297347;28;20048;-68
2023/10/17 15:56:01;;;;;;;1.60;0.82;;;;;;;8.98;50.02;96193.78;6296788;28;20056;-68
2023/10/17 15:59:08;;;;;;;1.17;0.90;;;;;;;9.04;50.32;96189.06;6297980;28;20395;-68
2023/10/17 16:02:13;;;;;;;1.75;0.73;;;;;;;9.02;50.38;96196.19;6297405;28;20070;-68
2023/10/17 16:05:23;;;;;;;1.65;0.80;;;;;;;9.01;50.33;96186.66;6297324;28;20037;-67
2023/10/17 16:08:32;;;;;;;3.25;1.05;;;;;;;8.86;50.91;96184.16;6297377;28;20044;-67
2023/10/17 16:11:36;;;;;;;1.15;0.75;;;;;;;8.79;50.91;96174.19;6297217;28;20052;-68
2023/10/17 16:14:44;;;;;;;2.90;1.10;;;;;;;8.81;50.85;96181.00;6297477;28;20043;-68
2023/10/17 16:17:50;;;;;;;2.55;1.00;;;;;;;8.77;51.24;96185.63;6297157;28;20040;-68
2023/10/17 16:20:54;;;;;;;1.23;0.80;;;;;;;8.77;51.11;96190.88;6297195;28;20038;-68
2023/10/17 16:23:56;;;;;;;1.63;0.90;;;;;;;8.81;51.25;96188.88;6296445;28;20049;-68
2023/10/17 16:27:01;;;;;;;1.95;1.00;;;;;;;8.82;51.23;96193.16;6296206;28;20132;-68
2023/10/17 16:30:05;;;;;;;2.33;1.10;;;;;;;8.74;51.50;96190.22;6296048;28;20048;-68
2023/10/17 16:33:12;;;;;;;2.20;0.88;;;;;;;8.62;51.94;96191.06;6295568;28;20056;-68
2023/10/17 16:36:20;;;;;;;3.33;0.88;;;;;;;8.52;51.90;96190.81;6296972;28;20044;-67
2023/10/17 16:39:21;;;;;;;4.65;0.90;;;;;;;8.40;52.66;96186.41;6296669;28;20043;-67
2023/10/17 16:42:25;;;;;;;1.77;0.70;;;;;;;8.35;52.78;96178.84;6295928;28;20048;-68
2023/10/17 16:45:30;;;;;;;1.77;0.82;;;;;;;8.32;52.93;96179.03;6296372;28;20455;-68
2023/10/17 16:48:34;;;;;;;1.90;1.20;;;;;;;8.34;53.05;96174.53;6296588;28;20048;-68
2023/10/17 16:51:38;;;;;;;2.25;1.17;;;;;;;8.35;53.12;96178.00;6296311;28;20038;-68
2023/10/17 16:54:40;;;;;;;1.30;0.85;;;;;;;8.26;53.40;96182.06;6270826;28;20053;-67
2023/10/17 16:57:41;;;;;;;2.17;1.10;;;;;;;8.21;53.67;96173.66;6271243;28;20135;-68